Terminal Aerodrome Forecast
Issued by NWS Blacksburg, VA

Home | Current Version | Previous Version | Text Only | Print | Product List | Glossary On
Versions: 1 2 3 4 5 6 7 8 9 10 11 12 13 14 15 16 17 18 19 20 21 22 23 24 25 26
000
FTUS41 KRNK 170523
TAFLYH
TAF
KLYH 170523Z 1706/1806 00000KT P6SM OVC070
     FM170800 00000KT P6SM -SN OVC060
     FM171000 36005KT 2SM -SN OVC015
      TEMPO 1712/1716 1SM -SN
     FM171600 33009KT P6SM VCSH SCT025
     FM180400 30007KT P6SM FEW140=

USA.gov is the U.S. government's official web portal to all federal, state and local government web resources and services.